sensor_id;sensor_type;location;lat;lon;timestamp;pressure;altitude;pressure_sealevel;temperature;humidity
65534;BME280;53640;55.838;37.184;2023-03-04T00:00:33;97483.34;;;-2.94;62.83
65534;BME280;53640;55.838;37.184;2023-03-04T00:02:59;97464.06;;;-3.03;63.08
65534;BME280;53640;55.838;37.184;2023-03-04T00:05:25;97473.50;;;-3.00;63.06
65534;BME280;53640;55.838;37.184;2023-03-04T00:07:52;97449.63;;;-3.15;63.01
65534;BME280;53640;55.838;37.184;2023-03-04T00:10:18;97506.75;;;-2.83;63.27
65534;BME280;53640;55.838;37.184;2023-03-04T00:12:44;97444.25;;;-3.07;62.87
65534;BME280;53640;55.838;37.184;2023-03-04T00:15:11;97470.88;;;-2.86;63.14
65534;BME280;53640;55.838;37.184;2023-03-04T00:17:37;97471.31;;;-2.82;63.31
65534;BME280;53640;55.838;37.184;2023-03-04T00:20:04;97427.38;;;-3.06;63.22
65534;BME280;53640;55.838;37.184;2023-03-04T00:22:31;97457.47;;;-2.84;63.08
65534;BME280;53640;55.838;37.184;2023-03-04T00:24:57;97435.44;;;-2.99;63.24
65534;BME280;53640;55.838;37.184;2023-03-04T00:27:23;97453.19;;;-2.85;63.21
65534;BME280;53640;55.838;37.184;2023-03-04T00:29:50;97466.59;;;-2.72;63.08
65534;BME280;53640;55.838;37.184;2023-03-04T00:32:16;97435.00;;;-2.88;62.57
65534;BME280;53640;55.838;37.184;2023-03-04T00:34:43;97422.47;;;-2.94;62.77
65534;BME280;53640;55.838;37.184;2023-03-04T00:37:09;97454.75;;;-2.76;63.04
65534;BME280;53640;55.838;37.184;2023-03-04T00:39:35;97412.44;;;-2.99;62.63
65534;BME280;53640;55.838;37.184;2023-03-04T00:42:02;97444.84;;;-2.82;62.64
65534;BME280;53640;55.838;37.184;2023-03-04T00:44:28;97434.53;;;-2.92;62.58
65534;BME280;53640;55.838;37.184;2023-03-04T00:46:55;97417.91;;;-3.00;62.17
65534;BME280;53640;55.838;37.184;2023-03-04T00:49:21;97449.53;;;-2.84;61.99
65534;BME280;53640;55.838;37.184;2023-03-04T00:51:47;97437.00;;;-2.90;62.13
65534;BME280;53640;55.838;37.184;2023-03-04T00:54:14;97454.34;;;-2.88;62.65
65534;BME280;53640;55.838;37.184;2023-03-04T00:56:40;97403.16;;;-3.18;62.47
65534;BME280;53640;55.838;37.184;2023-03-04T00:59:06;97403.53;;;-3.21;62.58
65534;BME280;53640;55.838;37.184;2023-03-04T01:01:33;97412.94;;;-3.18;62.71
65534;BME280;53640;55.838;37.184;2023-03-04T01:03:59;97445.34;;;-3.01;62.87
65534;BME280;53640;55.838;37.184;2023-03-04T01:06:26;97438.16;;;-3.08;62.60
65534;BME280;53640;55.838;37.184;2023-03-04T01:08:52;97435.50;;;-3.08;62.71
65534;BME280;53640;55.838;37.184;2023-03-04T01:11:19;97415.03;;;-3.14;62.91
65534;BME280;53640;55.838;37.184;2023-03-04T01:13:46;97417.22;;;-3.17;63.35
65534;BME280;53640;55.838;37.184;2023-03-04T01:16:14;97368.63;;;-3.39;63.08
65534;BME280;53640;55.838;37.184;2023-03-04T01:18:41;97419.09;;;-3.03;63.03
65534;BME280;53640;55.838;37.184;2023-03-04T01:21:08;97425.47;;;-2.97;63.04
65534;BME280;53640;55.838;37.184;2023-03-04T01:23:34;97418.44;;;-3.05;62.72
65534;BME280;53640;55.838;37.184;2023-03-04T01:26:01;97386.00;;;-3.22;62.65
65534;BME280;53640;55.838;37.184;2023-03-04T01:28:27;97411.97;;;-3.02;62.77
65534;BME280;53640;55.838;37.184;2023-03-04T01:30:53;97370.69;;;-3.26;62.34
65534;BME280;53640;55.838;37.184;2023-03-04T01:33:20;97396.78;;;-3.09;62.44
65534;BME280;53640;55.838;37.184;2023-03-04T01:35:46;97359.28;;;-3.27;62.36
65534;BME280;53640;55.838;37.184;2023-03-04T01:38:13;97400.72;;;-3.05;61.51
65534;BME280;53640;55.838;37.184;2023-03-04T01:40:41;97358.59;;;-3.44;61.56
65534;BME280;53640;55.838;37.184;2023-03-04T01:43:14;97379.97;;;-3.31;62.28
65534;BME280;53640;55.838;37.184;2023-03-04T01:45:41;97350.59;;;-3.59;61.81
65534;BME280;53640;55.838;37.184;2023-03-04T01:48:10;97394.50;;;-3.26;61.59
65534;BME280;53640;55.838;37.184;2023-03-04T01:50:38;97348.50;;;-3.63;61.79
65534;BME280;53640;55.838;37.184;2023-03-04T01:53:05;97400.09;;;-3.44;62.87
65534;BME280;53640;55.838;37.184;2023-03-04T01:55:31;97372.88;;;-3.53;62.96
65534;BME280;53640;55.838;37.184;2023-03-04T01:57:58;97367.59;;;-3.53;62.99
65534;BME280;53640;55.838;37.184;2023-03-04T02:03:06;97328.34;;;-3.64;63.02
65534;BME280;53640;55.838;37.184;2023-03-04T02:05:35;97335.28;;;-3.63;63.32
65534;BME280;53640;55.838;37.184;2023-03-04T02:08:02;97358.78;;;-3.45;63.11
65534;BME280;53640;55.838;37.184;2023-03-04T02:10:30;97365.28;;;-3.33;62.99
65534;BME280;53640;55.838;37.184;2023-03-04T02:12:57;97362.69;;;-3.41;62.95
65534;BME280;53640;55.838;37.184;2023-03-04T02:15:24;97351.59;;;-3.37;63.10
65534;BME280;53640;55.838;37.184;2023-03-04T02:17:51;97350.03;;;-3.31;62.98
65534;BME280;53640;55.838;37.184;2023-03-04T02:23:17;97291.34;;;-3.64;62.79
65534;BME280;53640;55.838;37.184;2023-03-04T02:26:14;97348.69;;;-3.27;62.93
65534;BME280;53640;55.838;37.184;2023-03-04T02:28:43;97362.81;;;-3.20;63.21
65534;BME280;53640;55.838;37.184;2023-03-04T02:31:35;97354.25;;;-3.22;63.32
65534;BME280;53640;55.838;37.184;2023-03-04T02:34:09;97319.38;;;-3.40;63.40
65534;BME280;53640;55.838;37.184;2023-03-04T02:36:37;97303.50;;;-3.40;63.54
65534;BME280;53640;55.838;37.184;2023-03-04T02:39:10;97344.25;;;-3.12;63.37
65534;BME280;53640;55.838;37.184;2023-03-04T02:41:37;97337.13;;;-3.11;63.56
65534;BME280;53640;55.838;37.184;2023-03-04T02:44:15;97295.56;;;-3.40;63.25
65534;BME280;53640;55.838;37.184;2023-03-04T02:46:43;97299.22;;;-3.41;63.04
65534;BME280;53640;55.838;37.184;2023-03-04T02:49:09;97321.41;;;-3.27;63.13
65534;BME280;53640;55.838;37.184;2023-03-04T02:51:36;97322.41;;;-3.28;62.65
65534;BME280;53640;55.838;37.184;2023-03-04T02:54:03;97311.44;;;-3.40;62.92
65534;BME280;53640;55.838;37.184;2023-03-04T02:56:30;97303.88;;;-3.43;63.11
65534;BME280;53640;55.838;37.184;2023-03-04T02:58:56;97329.59;;;-3.37;63.27
65534;BME280;53640;55.838;37.184;2023-03-04T03:01:27;97313.63;;;-3.44;63.11
65534;BME280;53640;55.838;37.184;2023-03-04T03:03:53;97290.06;;;-3.54;63.04
65534;BME280;53640;55.838;37.184;2023-03-04T03:06:21;97290.72;;;-3.51;63.28
65534;BME280;53640;55.838;37.184;2023-03-04T03:08:48;97310.91;;;-3.36;63.60
65534;BME280;53640;55.838;37.184;2023-03-04T03:11:16;97317.94;;;-3.28;63.00
65534;BME280;53640;55.838;37.184;2023-03-04T03:13:45;97201.16;;;-4.07;62.58
65534;BME280;53640;55.838;37.184;2023-03-04T03:16:11;97309.63;;;-3.40;63.06
65534;BME280;53640;55.838;37.184;2023-03-04T03:18:37;97269.81;;;-3.61;63.21
65534;BME280;53640;55.838;37.184;2023-03-04T03:21:05;97304.78;;;-3.36;62.66
65534;BME280;53640;55.838;37.184;2023-03-04T03:23:32;97297.28;;;-3.47;62.99
65534;BME280;53640;55.838;37.184;2023-03-04T03:26:00;97293.63;;;-3.46;62.92
65534;BME280;53640;55.838;37.184;2023-03-04T03:28:28;97288.63;;;-3.56;62.93
65534;BME280;53640;55.838;37.184;2023-03-04T03:30:56;97283.78;;;-3.52;63.08
65534;BME280;53640;55.838;37.184;2023-03-04T03:33:22;97256.78;;;-3.63;63.23
65534;BME280;53640;55.838;37.184;2023-03-04T03:35:49;97286.34;;;-3.44;63.10
65534;BME280;53640;55.838;37.184;2023-03-04T03:38:16;97261.53;;;-3.58;63.08
65534;BME280;53640;55.838;37.184;2023-03-04T03:40:43;97286.34;;;-3.44;63.31
65534;BME280;53640;55.838;37.184;2023-03-04T03:43:09;97222.38;;;-3.78;63.25
65534;BME280;53640;55.838;37.184;2023-03-04T03:45:36;97255.78;;;-3.62;63.21
65534;BME280;53640;55.838;37.184;2023-03-04T03:48:03;97256.31;;;-3.66;63.38
65534;BME280;53640;55.838;37.184;2023-03-04T03:50:31;97184.50;;;-4.08;63.29
65534;BME280;53640;55.838;37.184;2023-03-04T03:52:59;97225.72;;;-3.98;64.05
65534;BME280;53640;55.838;37.184;2023-03-04T03:55:26;97237.44;;;-3.78;63.78
65534;BME280;53640;55.838;37.184;2023-03-04T03:57:52;97209.94;;;-3.92;64.00
65534;BME280;53640;55.838;37.184;2023-03-04T04:00:19;97242.09;;;-3.65;63.98
65534;BME280;53640;55.838;37.184;2023-03-04T04:02:47;97242.47;;;-3.68;64.18
65534;BME280;53640;55.838;37.184;2023-03-04T04:05:13;97227.88;;;-3.64;64.08
65534;BME280;53640;55.838;37.184;2023-03-04T04:07:40;97116.53;;;-4.29;63.87
65534;BME280;53640;55.838;37.184;2023-03-04T04:10:09;97165.56;;;-3.96;63.49
65534;BME280;53640;55.838;37.184;2023-03-04T04:12:35;97215.66;;;-3.65;63.51
65534;BME280;53640;55.838;37.184;2023-03-04T04:15:02;97204.59;;;-3.69;63.88
65534;BME280;53640;55.838;37.184;2023-03-04T04:17:30;97165.22;;;-3.93;63.57
65534;BME280;53640;55.838;37.184;2023-03-04T04:19:56;97195.59;;;-3.74;63.89
65534;BME280;53640;55.838;37.184;2023-03-04T04:25:59;97137.19;;;-4.32;63.70
65534;BME280;53640;55.838;37.184;2023-03-04T04:28:26;97059.94;;;-4.72;63.79
65534;BME280;53640;55.838;37.184;2023-03-04T04:30:58;97138.16;;;-4.33;63.91
65534;BME280;53640;55.838;37.184;2023-03-04T04:33:25;97098.22;;;-4.53;64.37
65534;BME280;53640;55.838;37.184;2023-03-04T04:35:52;97148.31;;;-4.07;63.90
65534;BME280;53640;55.838;37.184;2023-03-04T04:38:18;97211.44;;;-3.74;64.18
65534;BME280;53640;55.838;37.184;2023-03-04T04:40:45;97078.19;;;-4.47;64.20
65534;BME280;53640;55.838;37.184;2023-03-04T04:43:12;97127.03;;;-4.06;63.98
65534;BME280;53640;55.838;37.184;2023-03-04T04:45:38;97186.06;;;-3.61;64.35
65534;BME280;53640;55.838;37.184;2023-03-04T04:48:05;97179.09;;;-3.62;64.61
65534;BME280;53640;55.838;37.184;2023-03-04T04:50:33;97125.13;;;-3.82;64.41
65534;BME280;53640;55.838;37.184;2023-03-04T04:53:00;97173.91;;;-3.55;64.45
65534;BME280;53640;55.838;37.184;2023-03-04T04:55:26;97156.50;;;-3.64;64.58
65534;BME280;53640;55.838;37.184;2023-03-04T04:57:53;97155.22;;;-3.54;64.57
65534;BME280;53640;55.838;37.184;2023-03-04T05:00:19;97193.16;;;-3.32;64.61
65534;BME280;53640;55.838;37.184;2023-03-04T05:02:51;97144.63;;;-3.54;64.36
65534;BME280;53640;55.838;37.184;2023-03-04T05:05:17;97085.56;;;-4.05;64.45
65534;BME280;53640;55.838;37.184;2023-03-04T05:07:44;97160.13;;;-3.50;64.48
65534;BME280;53640;55.838;37.184;2023-03-04T05:10:11;97154.50;;;-3.47;64.25
65534;BME280;53640;55.838;37.184;2023-03-04T05:12:38;97160.03;;;-3.42;64.00
65534;BME280;53640;55.838;37.184;2023-03-04T05:15:05;97179.91;;;-3.32;63.96
65534;BME280;53640;55.838;37.184;2023-03-04T05:17:32;97178.47;;;-3.19;63.82
65534;BME280;53640;55.838;37.184;2023-03-04T05:19:58;97181.28;;;-3.21;63.30
65534;BME280;53640;55.838;37.184;2023-03-04T05:22:24;97181.38;;;-3.29;64.12
65534;BME280;53640;55.838;37.184;2023-03-04T05:24:56;97184.94;;;-3.22;64.14
65534;BME280;53640;55.838;37.184;2023-03-04T05:27:31;97050.41;;;-4.06;63.30
65534;BME280;53640;55.838;37.184;2023-03-04T05:30:18;97080.66;;;-3.93;63.79
65534;BME280;53640;55.838;37.184;2023-03-04T05:36:25;97179.28;;;-3.19;64.12
65534;BME280;53640;55.838;37.184;2023-03-04T05:44:18;97016.88;;;-4.20;63.51
65534;BME280;53640;55.838;37.184;2023-03-04T05:47:42;97116.41;;;-3.68;63.71
65534;BME280;53640;55.838;37.184;2023-03-04T05:51:30;97040.00;;;-4.07;63.74
65534;BME280;53640;55.838;37.184;2023-03-04T05:54:07;96976.09;;;-4.32;64.47
65534;BME280;53640;55.838;37.184;2023-03-04T05:57:15;97030.25;;;-3.92;64.77
65534;BME280;53640;55.838;37.184;2023-03-04T06:14:14;96998.63;;;-3.85;63.76
65534;BME280;53640;55.838;37.184;2023-03-04T06:16:55;97108.31;;;-3.15;63.84
65534;BME280;53640;55.838;37.184;2023-03-04T06:19:21;97028.28;;;-3.54;63.85
65534;BME280;53640;55.838;37.184;2023-03-04T06:21:48;97047.78;;;-3.40;63.92
65534;BME280;53640;55.838;37.184;2023-03-04T06:24:14;97082.78;;;-3.01;63.95
65534;BME280;53640;55.838;37.184;2023-03-04T06:26:41;97094.53;;;-2.89;64.29
65534;BME280;53640;55.838;37.184;2023-03-04T06:29:07;97118.94;;;-2.72;64.11
65534;BME280;53640;55.838;37.184;2023-03-04T06:31:33;97116.72;;;-2.69;62.81
65534;BME280;53640;55.838;37.184;2023-03-04T06:34:00;97120.44;;;-2.63;63.34
65534;BME280;53640;55.838;37.184;2023-03-04T06:36:26;97070.03;;;-2.76;63.77
65534;BME280;53640;55.838;37.184;2023-03-04T06:38:53;97099.38;;;-2.50;64.03
65534;BME280;53640;55.838;37.184;2023-03-04T06:41:21;97092.94;;;-2.41;64.32
65534;BME280;53640;55.838;37.184;2023-03-04T06:43:47;97111.84;;;-2.22;64.24
65534;BME280;53640;55.838;37.184;2023-03-04T06:46:14;97101.06;;;-2.21;64.28
65534;BME280;53640;55.838;37.184;2023-03-04T06:48:40;97087.00;;;-2.21;64.04
65534;BME280;53640;55.838;37.184;2023-03-04T06:51:09;97076.84;;;-2.18;64.09
65534;BME280;53640;55.838;37.184;2023-03-04T06:53:37;97041.09;;;-2.22;64.38
65534;BME280;53640;55.838;37.184;2023-03-04T06:56:04;97075.72;;;-2.02;64.74
65534;BME280;53640;55.838;37.184;2023-03-04T06:58:31;97050.22;;;-2.03;65.31
65534;BME280;53640;55.838;37.184;2023-03-04T07:01:09;97023.50;;;-2.01;64.91
65534;BME280;53640;55.838;37.184;2023-03-04T07:03:36;97067.97;;;-1.62;63.92
65534;BME280;53640;55.838;37.184;2023-03-04T07:06:02;96978.22;;;-2.06;64.37
65534;BME280;53640;55.838;37.184;2023-03-04T07:08:30;97062.78;;;-1.42;63.99
65534;BME280;53640;55.838;37.184;2023-03-04T07:10:56;97049.50;;;-1.42;64.85
65534;BME280;53640;55.838;37.184;2023-03-04T07:13:22;97053.44;;;-1.25;64.33
65534;BME280;53640;55.838;37.184;2023-03-04T07:15:49;97042.81;;;-1.25;62.44
65534;BME280;53640;55.838;37.184;2023-03-04T07:18:15;97030.34;;;-1.24;61.96
65534;BME280;53640;55.838;37.184;2023-03-04T07:20:41;97055.31;;;-1.05;62.54
65534;BME280;53640;55.838;37.184;2023-03-04T07:23:08;97008.94;;;-1.23;62.26
65534;BME280;53640;55.838;37.184;2023-03-04T07:25:34;97043.50;;;-1.03;62.44
65534;BME280;53640;55.838;37.184;2023-03-04T07:28:00;96990.34;;;-1.29;62.04
65534;BME280;53640;55.838;37.184;2023-03-04T07:30:27;96995.22;;;-1.33;61.43
65534;BME280;53640;55.838;37.184;2023-03-04T07:32:56;97028.16;;;-1.07;61.19
65534;BME280;53640;55.838;37.184;2023-03-04T07:35:22;97033.06;;;-1.11;60.20
65534;BME280;53640;55.838;37.184;2023-03-04T07:37:50;97037.16;;;-1.08;61.68
65534;BME280;53640;55.838;37.184;2023-03-04T07:40:26;97032.44;;;-1.13;61.37
65534;BME280;53640;55.838;37.184;2023-03-04T07:42:54;96985.84;;;-1.42;61.76
65534;BME280;53640;55.838;37.184;2023-03-04T07:45:22;96978.06;;;-1.44;60.14
65534;BME280;53640;55.838;37.184;2023-03-04T07:47:49;97007.47;;;-1.32;60.12
65534;BME280;53640;55.838;37.184;2023-03-04T07:50:16;96972.50;;;-1.55;61.03
65534;BME280;53640;55.838;37.184;2023-03-04T07:52:45;97024.69;;;-1.15;60.35
65534;BME280;53640;55.838;37.184;2023-03-04T07:55:14;96943.72;;;-1.65;61.33
65534;BME280;53640;55.838;37.184;2023-03-04T07:57:42;97018.75;;;-1.17;61.07
65534;BME280;53640;55.838;37.184;2023-03-04T08:00:11;96991.78;;;-1.27;61.17
65534;BME280;53640;55.838;37.184;2023-03-04T08:02:40;96936.41;;;-1.56;59.56
65534;BME280;53640;55.838;37.184;2023-03-04T08:05:07;97006.31;;;-1.16;60.31
65534;BME280;53640;55.838;37.184;2023-03-04T08:07:34;96962.56;;;-1.33;60.87
65534;BME280;53640;55.838;37.184;2023-03-04T08:10:09;97008.75;;;-1.15;60.32
65534;BME280;53640;55.838;37.184;2023-03-04T08:12:39;96997.28;;;-1.35;60.60
65534;BME280;53640;55.838;37.184;2023-03-04T08:15:08;96926.59;;;-1.56;60.72
65534;BME280;53640;55.838;37.184;2023-03-04T08:17:36;96989.53;;;-1.17;60.83
65534;BME280;53640;55.838;37.184;2023-03-04T08:20:03;96983.41;;;-1.17;60.89
65534;BME280;53640;55.838;37.184;2023-03-04T08:22:29;96969.13;;;-1.23;61.03
65534;BME280;53640;55.838;37.184;2023-03-04T08:24:56;96984.06;;;-1.08;61.20
65534;BME280;53640;55.838;37.184;2023-03-04T08:27:23;96958.94;;;-1.19;58.32
65534;BME280;53640;55.838;37.184;2023-03-04T08:29:49;96989.38;;;-1.02;59.75
65534;BME280;53640;55.838;37.184;2023-03-04T08:32:15;96927.69;;;-1.24;59.52
65534;BME280;53640;55.838;37.184;2023-03-04T08:34:42;96926.03;;;-1.25;59.52
65534;BME280;53640;55.838;37.184;2023-03-04T08:37:10;96960.00;;;-0.94;59.02
65534;BME280;53640;55.838;37.184;2023-03-04T08:39:40;96868.63;;;-1.72;57.98
65534;BME280;53640;55.838;37.184;2023-03-04T08:42:17;96851.09;;;-1.47;58.40
65534;BME280;53640;55.838;37.184;2023-03-04T08:44:45;96876.63;;;-1.06;57.34
65534;BME280;53640;55.838;37.184;2023-03-04T08:47:12;96911.94;;;-0.72;58.00
65534;BME280;53640;55.838;37.184;2023-03-04T08:49:41;96919.69;;;-0.64;57.03
65534;BME280;53640;55.838;37.184;2023-03-04T08:52:07;96888.25;;;-0.74;58.50
65534;BME280;53640;55.838;37.184;2023-03-04T08:54:35;96872.91;;;-0.72;56.79
65534;BME280;53640;55.838;37.184;2023-03-04T08:57:02;96941.75;;;-0.37;56.43
65534;BME280;53640;55.838;37.184;2023-03-04T08:59:37;96825.81;;;-1.23;56.56
65534;BME280;53640;55.838;37.184;2023-03-04T09:02:15;96790.72;;;-1.31;56.19
65534;BME280;53640;55.838;37.184;2023-03-04T09:09:10;96758.47;;;-1.48;56.21
65534;BME280;53640;55.838;37.184;2023-03-04T09:14:57;96780.09;;;-1.31;56.16
65534;BME280;53640;55.838;37.184;2023-03-04T09:18:31;96905.16;;;-0.42;56.29
65534;BME280;53640;55.838;37.184;2023-03-04T09:20:59;96822.31;;;-0.97;57.31
65534;BME280;53640;55.838;37.184;2023-03-04T09:23:33;96739.47;;;-1.25;57.54
65534;BME280;53640;55.838;37.184;2023-03-04T09:26:22;96740.69;;;-1.28;57.64
65534;BME280;53640;55.838;37.184;2023-03-04T09:28:57;96709.47;;;-1.26;58.22
65534;BME280;53640;55.838;37.184;2023-03-04T09:31:41;96744.94;;;-1.00;57.88
65534;BME280;53640;55.838;37.184;2023-03-04T09:35:28;96778.56;;;-0.74;56.70
65534;BME280;53640;55.838;37.184;2023-03-04T09:37:58;96713.47;;;-1.03;57.00
65534;BME280;53640;55.838;37.184;2023-03-04T09:40:31;96777.09;;;-0.64;57.86
65534;BME280;53640;55.838;37.184;2023-03-04T09:43:04;96715.25;;;-0.91;57.46
65534;BME280;53640;55.838;37.184;2023-03-04T09:45:45;96778.06;;;-0.58;58.11
65534;BME280;53640;55.838;37.184;2023-03-04T09:48:16;96846.59;;;-0.15;56.27
65534;BME280;53640;55.838;37.184;2023-03-04T09:51:17;96832.53;;;-0.22;57.03
65534;BME280;53640;55.838;37.184;2023-03-04T09:56:27;96802.69;;;-0.31;56.80
65534;BME280;53640;55.838;37.184;2023-03-04T10:01:55;96831.91;;;-0.24;54.13
65534;BME280;53640;55.838;37.184;2023-03-04T10:04:48;96823.13;;;-0.25;56.77
65534;BME280;53640;55.838;37.184;2023-03-04T10:07:21;96790.94;;;-0.48;56.75
65534;BME280;53640;55.838;37.184;2023-03-04T10:10:16;96813.72;;;-0.27;57.32
65534;BME280;53640;55.838;37.184;2023-03-04T10:12:47;96775.00;;;-0.48;57.31
65534;BME280;53640;55.838;37.184;2023-03-04T10:18:26;96784.56;;;-0.41;58.41
65534;BME280;53640;55.838;37.184;2023-03-04T10:23:33;96775.09;;;-0.30;57.01
65534;BME280;53640;55.838;37.184;2023-03-04T10:26:11;96755.75;;;-0.44;57.39
65534;BME280;53640;55.838;37.184;2023-03-04T10:28:39;96782.84;;;-0.22;58.49
65534;BME280;53640;55.838;37.184;2023-03-04T10:33:37;96772.31;;;-0.48;57.82
65534;BME280;53640;55.838;37.184;2023-03-04T10:38:45;96778.59;;;-0.36;58.56
65534;BME280;53640;55.838;37.184;2023-03-04T10:41:14;96777.84;;;-0.56;59.63
65534;BME280;53640;55.838;37.184;2023-03-04T10:43:42;96766.34;;;-0.37;58.78
65534;BME280;53640;55.838;37.184;2023-03-04T10:46:12;96722.06;;;-0.56;59.31
65534;BME280;53640;55.838;37.184;2023-03-04T10:48:42;96758.78;;;-0.33;57.64
65534;BME280;53640;55.838;37.184;2023-03-04T10:51:30;96741.78;;;-0.32;59.31
65534;BME280;53640;55.838;37.184;2023-03-04T10:54:02;96732.13;;;-0.27;59.41
65534;BME280;53640;55.838;37.184;2023-03-04T11:07:43;96689.75;;;-0.53;59.39
65534;BME280;53640;55.838;37.184;2023-03-04T11:13:24;96703.25;;;-0.48;60.62
65534;BME280;53640;55.838;37.184;2023-03-04T11:16:00;96693.28;;;-0.59;60.28
65534;BME280;53640;55.838;37.184;2023-03-04T11:21:06;96690.81;;;-0.54;60.79
65534;BME280;53640;55.838;37.184;2023-03-04T11:26:25;96687.38;;;-0.62;61.17
65534;BME280;53640;55.838;37.184;2023-03-04T11:34:45;96648.03;;;-0.78;61.83
65534;BME280;53640;55.838;37.184;2023-03-04T11:39:57;96684.13;;;-0.64;62.12
65534;BME280;53640;55.838;37.184;2023-03-04T11:42:35;96669.25;;;-0.71;62.50
65534;BME280;53640;55.838;37.184;2023-03-04T11:45:11;96615.03;;;-1.02;62.40
65534;BME280;53640;55.838;37.184;2023-03-04T11:53:25;96669.91;;;-0.82;63.24
65534;BME280;53640;55.838;37.184;2023-03-04T12:01:43;96629.97;;;-1.07;63.77
65534;BME280;53640;55.838;37.184;2023-03-04T12:07:21;96622.84;;;-1.07;64.59
65534;BME280;53640;55.838;37.184;2023-03-04T12:13:15;96630.38;;;-1.04;64.19
65534;BME280;53640;55.838;37.184;2023-03-04T12:21:21;96604.06;;;-1.12;64.82
65534;BME280;53640;55.838;37.184;2023-03-04T12:26:53;96600.41;;;-1.18;65.09
65534;BME280;53640;55.838;37.184;2023-03-04T12:32:39;96593.91;;;-1.22;64.86
65534;BME280;53640;55.838;37.184;2023-03-04T12:35:30;96590.84;;;-1.19;64.98
65534;BME280;53640;55.838;37.184;2023-03-04T12:38:16;96540.28;;;-1.37;65.14
65534;BME280;53640;55.838;37.184;2023-03-04T12:41:04;96569.84;;;-1.27;65.07
65534;BME280;53640;55.838;37.184;2023-03-04T12:44:01;96551.13;;;-1.39;65.00
65534;BME280;53640;55.838;37.184;2023-03-04T12:49:45;96563.72;;;-1.27;65.65
65534;BME280;53640;55.838;37.184;2023-03-04T12:54:49;96553.50;;;-1.24;65.77
65534;BME280;53640;55.838;37.184;2023-03-04T12:57:24;96498.19;;;-1.65;65.74
65534;BME280;53640;55.838;37.184;2023-03-04T13:00:19;96507.50;;;-1.49;65.57
65534;BME280;53640;55.838;37.184;2023-03-04T13:08:35;96552.91;;;-1.26;64.73
65534;BME280;53640;55.838;37.184;2023-03-04T13:14:21;96496.03;;;-1.43;65.47
65534;BME280;53640;55.838;37.184;2023-03-04T13:17:17;96504.56;;;-1.35;65.51
65534;BME280;53640;55.838;37.184;2023-03-04T13:19:55;96381.34;;;-2.15;65.44
65534;BME280;53640;55.838;37.184;2023-03-04T13:25:35;96499.81;;;-1.26;65.74
65534;BME280;53640;55.838;37.184;2023-03-04T13:28:33;96506.75;;;-1.25;65.46
65534;BME280;53640;55.838;37.184;2023-03-04T13:31:11;96509.81;;;-1.28;65.65
65534;BME280;53640;55.838;37.184;2023-03-04T13:33:52;96463.88;;;-1.53;65.81
65534;BME280;53640;55.838;37.184;2023-03-04T13:41:54;96410.31;;;-1.75;65.84
65534;BME280;53640;55.838;37.184;2023-03-04T13:47:15;96483.06;;;-1.20;65.34
65534;BME280;53640;55.838;37.184;2023-03-04T13:49:42;96360.91;;;-2.01;65.28
65534;BME280;53640;55.838;37.184;2023-03-04T13:52:37;96473.03;;;-1.18;65.49
65534;BME280;53640;55.838;37.184;2023-03-04T13:56:03;96446.13;;;-1.28;65.54
65534;BME280;53640;55.838;37.184;2023-03-04T13:58:32;96349.28;;;-2.00;65.91
65534;BME280;53640;55.838;37.184;2023-03-04T14:01:00;96462.84;;;-1.21;65.02
65534;BME280;53640;55.838;37.184;2023-03-04T14:03:30;96403.09;;;-1.62;65.81
65534;BME280;53640;55.838;37.184;2023-03-04T14:06:18;96440.47;;;-1.31;66.04
65534;BME280;53640;55.838;37.184;2023-03-04T14:08:47;96402.25;;;-1.55;65.72
65534;BME280;53640;55.838;37.184;2023-03-04T14:11:20;96398.34;;;-1.53;65.61
65534;BME280;53640;55.838;37.184;2023-03-04T14:13:50;96428.41;;;-1.27;65.70
65534;BME280;53640;55.838;37.184;2023-03-04T14:16:21;96394.91;;;-1.53;66.05
65534;BME280;53640;55.838;37.184;2023-03-04T14:18:59;96411.97;;;-1.43;65.35
65534;BME280;53640;55.838;37.184;2023-03-04T14:21:27;96435.53;;;-1.28;66.14
65534;BME280;53640;55.838;37.184;2023-03-04T14:24:11;96375.38;;;-1.66;66.04
65534;BME280;53640;55.838;37.184;2023-03-04T14:26:39;96432.28;;;-1.30;66.14
65534;BME280;53640;55.838;37.184;2023-03-04T14:29:27;96420.06;;;-1.31;66.54
65534;BME280;53640;55.838;37.184;2023-03-04T14:31:56;96419.66;;;-1.35;66.27
65534;BME280;53640;55.838;37.184;2023-03-04T14:34:29;96404.56;;;-1.34;66.55
65534;BME280;53640;55.838;37.184;2023-03-04T14:37:23;96409.00;;;-1.28;66.55
65534;BME280;53640;55.838;37.184;2023-03-04T14:39:55;96390.91;;;-1.38;66.80
65534;BME280;53640;55.838;37.184;2023-03-04T14:42:25;96413.09;;;-1.32;66.97
65534;BME280;53640;55.838;37.184;2023-03-04T14:44:54;96368.38;;;-1.53;66.50
65534;BME280;53640;55.838;37.184;2023-03-04T14:47:29;96351.66;;;-1.54;66.25
65534;BME280;53640;55.838;37.184;2023-03-04T14:49:58;96387.59;;;-1.33;66.44
65534;BME280;53640;55.838;37.184;2023-03-04T14:52:40;96368.69;;;-1.43;66.47
65534;BME280;53640;55.838;37.184;2023-03-04T14:57:48;96384.88;;;-1.20;65.87
65534;BME280;53640;55.838;37.184;2023-03-04T15:00:31;96347.31;;;-1.48;66.42
65534;BME280;53640;55.838;37.184;2023-03-04T15:03:03;96339.13;;;-1.47;66.11
65534;BME280;53640;55.838;37.184;2023-03-04T15:05:42;96379.19;;;-1.23;66.26
65534;BME280;53640;55.838;37.184;2023-03-04T15:11:04;96347.03;;;-1.40;66.41
65534;BME280;53640;55.838;37.184;2023-03-04T15:13:42;96366.53;;;-1.28;66.57
65534;BME280;53640;55.838;37.184;2023-03-04T15:16:13;96379.00;;;-1.28;66.64
65534;BME280;53640;55.838;37.184;2023-03-04T15:18:56;96330.22;;;-1.52;66.47
65534;BME280;53640;55.838;37.184;2023-03-04T15:21:36;96358.56;;;-1.28;66.76
65534;BME280;53640;55.838;37.184;2023-03-04T15:24:04;96356.16;;;-1.29;66.47
65534;BME280;53640;55.838;37.184;2023-03-04T15:26:36;96308.38;;;-1.54;66.65
65534;BME280;53640;55.838;37.184;2023-03-04T15:29:18;96337.47;;;-1.41;66.79
65534;BME280;53640;55.838;37.184;2023-03-04T15:31:45;96332.75;;;-1.39;66.40
65534;BME280;53640;55.838;37.184;2023-03-04T15:34:21;96345.59;;;-1.36;66.76
65534;BME280;53640;55.838;37.184;2023-03-04T15:36:49;96341.31;;;-1.37;66.45
65534;BME280;53640;55.838;37.184;2023-03-04T15:39:17;96355.91;;;-1.28;66.81